Time;durP1;ratioP1;P1;durP2;ratioP2;P2;SDS_P1;SDS_P2;PMS_P1;PMS_P2;Temp;Humidity;BMP_temperature;BMP_pressure;BME280_temperature;BME280_humidity;BME280_pressure;Samples;Min_cycle;Max_cycle;Signal;HPM_P1;HPM_P2
2022/08/26 00:02:02;;;;;;;10.32;7.00;;;26.40;64.50;;;;;;6098555;23;20018;-66
2022/08/26 00:04:28;;;;;;;12.95;6.50;;;26.40;64.60;;;;;;6098575;23;19999;-67
2022/08/26 00:06:55;;;;;;;11.98;6.80;;;26.40;64.70;;;;;;6098523;23;20069;-66
2022/08/26 00:09:22;;;;;;;8.10;5.60;;;26.40;64.70;;;;;;6098354;23;20344;-67
2022/08/26 00:11:48;;;;;;;9.27;6.32;;;26.30;64.80;;;;;;6098220;23;20030;-67
2022/08/26 00:14:15;;;;;;;8.35;5.85;;;26.30;65.00;;;;;;6098380;23;20007;-66
2022/08/26 00:16:41;;;;;;;13.43;6.47;;;26.30;64.90;;;;;;6098478;23;20010;-67
2022/08/26 00:19:07;;;;;;;12.15;6.90;;;26.30;64.90;;;;;;6098111;23;20007;-66
2022/08/26 00:21:33;;;;;;;8.60;6.20;;;26.30;64.90;;;;;;6098261;23;20006;-66
2022/08/26 00:23:59;;;;;;;10.88;5.88;;;26.30;65.00;;;;;;6098298;23;20441;-67
2022/08/26 00:26:24;;;;;;;9.05;5.63;;;26.30;65.10;;;;;;6097887;23;20009;-66
2022/08/26 00:28:50;;;;;;;10.65;6.20;;;26.20;65.30;;;;;;6098134;23;20034;-66
2022/08/26 00:31:16;;;;;;;9.60;6.68;;;26.20;65.50;;;;;;6098171;23;20006;-67
2022/08/26 00:33:41;;;;;;;13.93;6.30;;;26.20;65.50;;;;;;6098348;23;20011;-67
2022/08/26 00:36:08;;;;;;;9.95;6.38;;;26.10;65.50;;;;;;6098305;23;20006;-66
2022/08/26 00:38:37;;;;;;;12.40;6.88;;;26.20;65.60;;;;;;6098030;23;20009;-67
2022/08/26 00:41:03;;;;;;;11.60;7.20;;;26.10;65.80;;;;;;6097664;23;20160;-66
2022/08/26 00:43:32;;;;;;;12.55;6.43;;;26.10;65.90;;;;;;6097698;23;20484;-67
2022/08/26 00:46:09;;;;;;;11.68;6.60;;;26.10;66.00;;;;;;6098355;23;20015;-66
2022/08/26 00:48:38;;;;;;;10.30;7.05;;;26.10;66.00;;;;;;6098356;23;20006;-66
2022/08/26 00:51:14;;;;;;;11.13;7.15;;;26.10;65.90;;;;;;6098071;23;20306;-67
2022/08/26 00:53:49;;;;;;;12.40;6.97;;;26.10;65.90;;;;;;6098514;23;20385;-67
2022/08/26 00:56:25;;;;;;;12.00;7.07;;;26.00;65.80;;;;;;6098103;23;20011;-66
2022/08/26 00:58:52;;;;;;;9.10;6.65;;;26.00;65.90;;;;;;6097519;23;20353;-66
2022/08/26 01:01:18;;;;;;;8.18;6.78;;;26.00;66.00;;;;;;6097706;23;20025;-66
2022/08/26 01:03:45;;;;;;;11.07;7.13;;;26.00;66.20;;;;;;6097796;23;20002;-66
2022/08/26 01:06:12;;;;;;;12.43;7.07;;;26.00;66.20;;;;;;6097433;23;20421;-66
2022/08/26 01:08:37;;;;;;;11.38;7.07;;;25.90;66.20;;;;;;6097683;23;20010;-67
2022/08/26 01:11:04;;;;;;;14.00;6.72;;;26.00;66.10;;;;;;6097525;23;20033;-66
2022/08/26 01:13:30;;;;;;;12.90;7.40;;;25.90;66.00;;;;;;6097828;23;20002;-66
2022/08/26 01:15:59;;;;;;;12.10;6.72;;;25.90;66.30;;;;;;6097567;23;20017;-66
2022/08/26 01:18:26;;;;;;;7.78;6.50;;;25.90;66.80;;;;;;6097574;23;19998;-66
2022/08/26 01:21:15;;;;;;;9.93;6.85;;;25.90;66.50;;;;;;6097355;23;20014;-66
2022/08/26 01:23:44;;;;;;;10.65;6.78;;;25.90;66.60;;;;;;6098202;23;20064;-66
2022/08/26 01:26:17;;;;;;;12.30;6.80;;;25.80;66.80;;;;;;6097572;23;20025;-66
2022/08/26 01:28:43;;;;;;;11.38;6.50;;;25.80;66.90;;;;;;6097636;23;20009;-66
2022/08/26 01:31:16;;;;;;;18.02;6.57;;;25.80;66.90;;;;;;6097479;23;20337;-67
2022/08/26 01:34:17;;;;;;;11.93;6.80;;;25.80;67.10;;;;;;6097459;23;20042;-66
2022/08/26 01:36:43;;;;;;;14.27;7.20;;;25.70;67.10;;;;;;6050997;23;20010;-67
2022/08/26 01:39:10;;;;;;;11.50;6.22;;;25.80;67.00;;;;;;6097349;23;20004;-66
2022/08/26 01:41:36;;;;;;;9.70;6.35;;;25.70;66.90;;;;;;6097457;23;20385;-67
2022/08/26 01:44:05;;;;;;;11.63;6.50;;;25.80;66.90;;;;;;6097397;23;20002;-67
2022/08/26 01:46:32;;;;;;;9.60;6.32;;;25.70;66.70;;;;;;6097697;23;20325;-67
2022/08/26 01:49:02;;;;;;;9.55;6.25;;;25.70;66.60;;;;;;6097178;23;20006;-66
2022/08/26 01:51:30;;;;;;;10.95;5.95;;;25.70;66.60;;;;;;6097467;23;20085;-66
2022/08/26 01:53:56;;;;;;;12.48;6.70;;;25.70;67.10;;;;;;6097562;23;20007;-66
2022/08/26 01:56:23;;;;;;;10.10;7.05;;;25.70;66.40;;;;;;6097641;23;20046;-67
2022/08/26 01:58:56;;;;;;;12.15;6.13;;;25.60;66.30;;;;;;6097320;23;20022;-66
2022/08/26 02:01:23;;;;;;;12.27;6.05;;;25.60;66.40;;;;;;6097160;23;20021;-67
2022/08/26 02:04:04;;;;;;;11.98;7.30;;;25.60;66.30;;;;;;6096885;23;20562;-66
2022/08/26 02:06:31;;;;;;;11.55;6.57;;;25.60;66.40;;;;;;6097706;23;20010;-66
2022/08/26 02:09:00;;;;;;;13.68;6.60;;;25.60;66.50;;;;;;6097154;23;20010;-66
2022/08/26 02:11:26;;;;;;;11.10;6.25;;;25.60;66.70;;;;;;6097206;23;20014;-66
2022/08/26 02:14:03;;;;;;;9.95;6.72;;;25.60;66.80;;;;;;6096986;23;19998;-66
2022/08/26 02:16:35;;;;;;;12.25;6.40;;;25.60;66.90;;;;;;6097368;23;20307;-66
2022/08/26 02:19:01;;;;;;;;;;;25.60;67.00;;;;;;6097601;23;20089;-66
2022/08/26 02:21:27;;;;;;;10.45;6.30;;;25.60;67.00;;;;;;6096942;23;19920;-66
2022/08/26 02:23:54;;;;;;;10.60;6.40;;;25.60;67.20;;;;;;6097545;23;20033;-66
2022/08/26 02:26:22;;;;;;;9.27;5.78;;;25.50;67.30;;;;;;6097076;23;20029;-66
2022/08/26 02:29:22;;;;;;;10.10;6.30;;;25.50;67.40;;;;;;6097377;23;20307;-66
2022/08/26 02:31:48;;;;;;;8.95;6.05;;;25.50;67.50;;;;;;6096965;23;20342;-66
2022/08/26 02:34:18;;;;;;;11.88;6.13;;;25.50;67.50;;;;;;6096898;23;20011;-67
2022/08/26 02:36:44;;;;;;;14.05;6.82;;;25.50;67.50;;;;;;6096954;23;20062;-66
2022/08/26 02:39:10;;;;;;;9.65;6.50;;;25.50;67.40;;;;;;6097596;23;19999;-66
2022/08/26 02:41:37;;;;;;;9.98;6.40;;;25.40;67.40;;;;;;6097009;23;20429;-67
2022/08/26 02:44:03;;;;;;;10.73;6.78;;;25.40;67.50;;;;;;6096752;23;20058;-67
2022/08/26 02:46:30;;;;;;;10.77;6.40;;;25.40;67.50;;;;;;6097079;23;20010;-66
2022/08/26 02:48:56;;;;;;;13.98;6.47;;;25.40;67.50;;;;;;6097092;23;20006;-67
2022/08/26 02:51:22;;;;;;;12.18;6.72;;;25.40;67.50;;;;;;6097316;23;20010;-67
2022/08/26 02:53:47;;;;;;;12.80;6.20;;;25.30;67.60;;;;;;6096755;23;20463;-64
2022/08/26 02:56:13;;;;;;;9.43;6.25;;;25.30;67.80;;;;;;6096775;23;20058;-67
2022/08/26 02:58:39;;;;;;;14.10;6.63;;;25.20;67.90;;;;;;6096759;23;20085;-66
2022/08/26 03:01:05;;;;;;;9.80;5.93;;;25.20;68.00;;;;;;6098327;23;20025;-67
2022/08/26 03:03:31;;;;;;;12.07;6.40;;;25.10;68.10;;;;;;6099032;23;20003;-67
2022/08/26 03:05:57;;;;;;;8.45;6.32;;;25.20;68.10;;;;;;6099151;23;20078;-66
2022/08/26 03:08:22;;;;;;;13.13;6.18;;;25.10;68.10;;;;;;6098872;23;20049;-67
2022/08/26 03:10:48;;;;;;;11.73;6.03;;;25.10;68.20;;;;;;6098724;23;20007;-66
2022/08/26 03:13:14;;;;;;;12.32;6.10;;;25.10;68.30;;;;;;6098802;23;20002;-67
2022/08/26 03:15:40;;;;;;;14.68;6.57;;;25.10;68.40;;;;;;6098921;23;20003;-67
2022/08/26 03:18:06;;;;;;;13.48;6.22;;;25.10;68.40;;;;;;6098881;23;20017;-66
2022/08/26 03:20:32;;;;;;;10.60;6.32;;;25.00;68.50;;;;;;6098642;23;20011;-67
2022/08/26 03:22:58;;;;;;;9.48;6.55;;;25.00;68.70;;;;;;6098412;23;20006;-67
2022/08/26 03:25:25;;;;;;;9.27;6.03;;;25.00;68.70;;;;;;6098726;23;20369;-67
2022/08/26 03:27:52;;;;;;;13.07;6.35;;;25.00;68.70;;;;;;6098734;23;20005;-67
2022/08/26 03:33:03;;;;;;;10.15;6.45;;;25.00;68.90;;;;;;6098688;23;20016;-67
2022/08/26 03:35:31;;;;;;;9.35;6.43;;;25.00;68.80;;;;;;6098991;23;20362;-66
2022/08/26 03:37:57;;;;;;;12.00;6.10;;;25.00;68.90;;;;;;6098617;23;20014;-66
2022/08/26 03:40:22;;;;;;;14.48;6.35;;;24.90;68.90;;;;;;6098633;23;20041;-67
2022/08/26 03:42:49;;;;;;;8.40;6.18;;;25.00;69.10;;;;;;6098765;23;20058;-66
2022/08/26 03:45:16;;;;;;;12.68;6.20;;;24.90;69.10;;;;;;6098524;23;20026;-67
2022/08/26 03:47:43;;;;;;;9.60;6.53;;;25.00;69.10;;;;;;6098783;23;20013;-67
2022/08/26 03:50:10;;;;;;;10.98;6.35;;;24.90;69.10;;;;;;6098409;23;20025;-66
2022/08/26 03:52:36;;;;;;;10.07;6.78;;;24.90;69.30;;;;;;6098602;23;20002;-67
2022/08/26 03:55:05;;;;;;;10.73;6.45;;;24.90;69.30;;;;;;6098826;23;20015;-67
2022/08/26 03:57:31;;;;;;;12.70;6.57;;;24.80;69.30;;;;;;6098662;23;20017;-67
2022/08/26 03:59:57;;;;;;;11.25;6.43;;;24.90;69.40;;;;;;6098267;23;20350;-66
2022/08/26 04:02:23;;;;;;;10.13;6.43;;;24.80;69.40;;;;;;6098402;23;20010;-67
2022/08/26 04:04:49;;;;;;;7.72;6.05;;;24.80;69.50;;;;;;6098191;23;20011;-66
2022/08/26 04:07:15;;;;;;;11.23;6.45;;;24.70;69.70;;;;;;6098325;23;20443;-67
2022/08/26 04:09:40;;;;;;;11.70;6.45;;;24.70;69.90;;;;;;6098205;23;20002;-66
2022/08/26 04:12:07;;;;;;;10.55;6.60;;;24.70;70.00;;;;;;6098152;23;20115;-67
2022/08/26 04:14:34;;;;;;;10.50;6.07;;;24.70;70.20;;;;;;6098209;23;20085;-67
2022/08/26 04:17:01;;;;;;;10.23;6.35;;;24.70;70.10;;;;;;6098096;23;20011;-67
2022/08/26 04:19:27;;;;;;;12.68;6.63;;;24.70;70.20;;;;;;6098423;23;20010;-67
2022/08/26 04:21:53;;;;;;;11.52;6.95;;;24.70;70.30;;;;;;6098160;23;20452;-67
2022/08/26 04:24:21;;;;;;;10.63;6.30;;;24.60;70.30;;;;;;6098321;23;20061;-66
2022/08/26 04:26:47;;;;;;;13.30;6.78;;;24.60;70.20;;;;;;6098242;23;20003;-67
2022/08/26 04:29:17;;;;;;;9.93;6.30;;;24.60;70.20;;;;;;6098095;23;20049;-67
2022/08/26 04:31:43;;;;;;;14.20;6.75;;;24.60;70.30;;;;;;6098318;23;20065;-67
2022/08/26 04:34:09;;;;;;;8.68;6.60;;;24.60;70.40;;;;;;6098024;23;20009;-67
2022/08/26 04:36:36;;;;;;;10.82;6.57;;;24.60;70.50;;;;;;6098165;23;20016;-67
2022/08/26 04:39:02;;;;;;;11.20;6.85;;;24.60;70.40;;;;;;6097954;23;20010;-67
2022/08/26 04:41:30;;;;;;;11.98;7.22;;;24.60;70.30;;;;;;6098011;23;20020;-67
2022/08/26 04:43:56;;;;;;;10.13;6.90;;;24.60;70.30;;;;;;6098039;23;20018;-66
2022/08/26 04:46:23;;;;;;;11.68;7.53;;;24.60;70.30;;;;;;6097916;23;20006;-67
2022/08/26 04:48:50;;;;;;;13.25;7.60;;;24.60;70.30;;;;;;6097865;23;20011;-67
2022/08/26 04:51:17;;;;;;;12.85;7.22;;;24.60;70.20;;;;;;6097948;23;20009;-68
2022/08/26 04:53:42;;;;;;;10.05;6.75;;;24.50;70.20;;;;;;6097968;23;20002;-67
2022/08/26 04:56:08;;;;;;;12.40;7.15;;;24.60;70.50;;;;;;6097668;23;20445;-67
2022/08/26 04:58:34;;;;;;;13.50;6.78;;;24.60;70.40;;;;;;6097556;23;20476;-67
2022/08/26 05:01:00;;;;;;;11.95;7.30;;;24.60;70.50;;;;;;6097731;23;20022;-67
2022/08/26 05:03:26;;;;;;;13.73;6.93;;;24.50;70.30;;;;;;6097585;23;20010;-67
2022/08/26 05:05:52;;;;;;;13.73;7.18;;;24.50;70.10;;;;;;6097613;23;20006;-66
2022/08/26 05:08:19;;;;;;;19.15;7.68;;;24.50;70.20;;;;;;6097559;23;19998;-67
2022/08/26 05:10:48;;;;;;;15.00;7.35;;;24.50;70.40;;;;;;6097656;23;20013;-67
2022/08/26 05:13:17;;;;;;;11.82;7.75;;;24.50;70.60;;;;;;6097951;23;20512;-67
2022/08/26 05:15:44;;;;;;;17.83;7.90;;;24.50;70.60;;;;;;6097795;23;20030;-68
2022/08/26 05:18:12;;;;;;;17.52;7.93;;;24.50;70.70;;;;;;6097462;23;20002;-67
2022/08/26 05:20:43;;;;;;;17.23;7.43;;;24.50;71.00;;;;;;6097128;23;20026;-67
2022/08/26 05:23:09;;;;;;;12.93;7.30;;;24.50;71.20;;;;;;6097745;23;20086;-67
2022/08/26 05:25:40;;;;;;;11.88;7.38;;;24.50;71.30;;;;;;6097675;23;20097;-67
2022/08/26 05:28:07;;;;;;;13.00;6.70;;;24.50;71.50;;;;;;6097699;23;20091;-67
2022/08/26 05:30:35;;;;;;;12.57;7.03;;;24.50;71.60;;;;;;6097787;23;20018;-67
2022/08/26 05:33:00;;;;;;;11.55;7.30;;;24.50;71.70;;;;;;6097404;23;20002;-67
2022/08/26 05:35:30;;;;;;;11.45;6.85;;;24.50;71.60;;;;;;6097653;23;20058;-67
2022/08/26 05:37:57;;;;;;;10.55;7.05;;;24.50;71.30;;;;;;6097450;23;20085;-67
2022/08/26 05:40:23;;;;;;;10.75;6.90;;;24.60;71.00;;;;;;6097171;23;20046;-67
2022/08/26 05:42:49;;;;;;;10.30;6.68;;;24.60;71.00;;;;;;6097245;23;20010;-67
2022/08/26 05:45:14;;;;;;;12.65;7.35;;;24.60;71.00;;;;;;6097251;23;20006;-66
2022/08/26 05:47:40;;;;;;;12.75;7.50;;;24.70;71.00;;;;;;6097409;23;20006;-67
2022/08/26 05:50:06;;;;;;;13.40;7.60;;;24.70;71.10;;;;;;6097529;23;20030;-67
2022/08/26 05:52:32;;;;;;;12.38;6.90;;;24.70;71.20;;;;;;6097196;23;20003;-67
2022/08/26 05:54:58;;;;;;;9.52;6.57;;;24.70;71.20;;;;;;6097221;23;20093;-67
2022/08/26 05:57:24;;;;;;;15.77;7.38;;;24.80;70.90;;;;;;6097353;23;20041;-67
2022/08/26 05:59:50;;;;;;;13.65;7.43;;;24.80;70.80;;;;;;6096973;23;20046;-67
2022/08/26 06:02:16;;;;;;;12.35;6.68;;;24.80;70.70;;;;;;6097327;23;20018;-67
2022/08/26 06:04:42;;;;;;;15.32;7.30;;;24.80;70.50;;;;;;6096972;23;20341;-66
2022/08/26 06:07:07;;;;;;;14.45;7.70;;;24.90;70.40;;;;;;6097216;23;20019;-67
2022/08/26 06:09:36;;;;;;;15.57;7.40;;;24.90;70.40;;;;;;6097409;23;20456;-67
2022/08/26 06:12:02;;;;;;;11.40;7.05;;;24.90;70.40;;;;;;6097206;23;20003;-67
2022/08/26 06:14:29;;;;;;;9.63;6.78;;;25.00;70.20;;;;;;6097471;23;20006;-67
2022/08/26 06:16:55;;;;;;;11.70;6.50;;;25.00;70.10;;;;;;6096813;23;20500;-66
2022/08/26 06:19:21;;;;;;;13.52;7.05;;;25.10;70.20;;;;;;6096883;23;20006;-67
2022/08/26 06:21:49;;;;;;;13.35;7.05;;;25.10;70.30;;;;;;6097442;23;20437;-66
2022/08/26 06:27:03;;;;;;;15.52;6.70;;;25.20;69.60;;;;;;6096964;23;20026;-67
2022/08/26 06:29:32;;;;;;;16.25;6.78;;;25.20;69.00;;;;;;6097267;23;20068;-67
2022/08/26 06:31:59;;;;;;;11.25;6.35;;;25.30;69.00;;;;;;6097169;23;20430;-67
2022/08/26 06:34:27;;;;;;;10.70;6.32;;;25.40;69.30;;;;;;6097110;23;20056;-67
2022/08/26 06:36:54;;;;;;;11.93;6.35;;;25.40;69.30;;;;;;6096916;23;20081;-68
2022/08/26 06:39:20;;;;;;;12.43;6.25;;;25.50;69.50;;;;;;6071350;23;20334;-67
2022/08/26 06:41:46;;;;;;;17.40;5.93;;;25.60;69.30;;;;;;6096979;23;20015;-67
2022/08/26 06:44:13;;;;;;;17.25;6.72;;;25.60;68.50;;;;;;6097194;23;20034;-67
2022/08/26 06:46:40;;;;;;;13.63;6.53;;;25.60;68.10;;;;;;6097374;23;20010;-67
2022/08/26 06:49:06;;;;;;;15.27;5.85;;;25.70;67.80;;;;;;6096870;23;20464;-67
2022/08/26 06:51:35;;;;;;;9.88;6.03;;;25.80;67.60;;;;;;6097152;23;20041;-66
2022/08/26 06:54:02;;;;;;;11.88;6.00;;;25.80;67.30;;;;;;6097081;23;20013;-66
2022/08/26 06:56:34;;;;;;;10.73;5.97;;;25.80;66.90;;;;;;6096671;23;20005;-67
2022/08/26 06:59:00;;;;;;;;;;;25.90;66.40;;;;;;6097160;23;20438;-67
2022/08/26 07:01:32;;;;;;;10.90;6.35;;;26.00;66.20;;;;;;6097159;23;19913;-66
2022/08/26 07:04:02;;;;;;;11.32;5.90;;;26.00;66.10;;;;;;6096825;23;20026;-67
2022/08/26 07:06:28;;;;;;;11.15;7.28;;;26.10;66.00;;;;;;6096940;23;20033;-67
2022/08/26 07:09:01;;;;;;;14.85;6.18;;;26.20;65.70;;;;;;6096964;23;20003;-67
2022/08/26 07:11:27;;;;;;;10.00;5.95;;;26.20;65.40;;;;;;6096997;23;20026;-67
2022/08/26 07:13:53;;;;;;;10.57;6.57;;;26.30;65.10;;;;;;6096841;23;20002;-67
2022/08/26 07:16:19;;;;;;;8.90;6.00;;;26.30;64.90;;;;;;6096997;23;20338;-67
2022/08/26 07:18:47;;;;;;;9.27;6.10;;;26.40;64.90;;;;;;6096623;23;20077;-67
2022/08/26 07:21:16;;;;;;;13.70;6.93;;;26.50;64.80;;;;;;6096677;23;20011;-67
2022/08/26 07:23:41;;;;;;;13.25;7.18;;;26.60;64.60;;;;;;6096565;23;20035;-67
2022/08/26 07:26:11;;;;;;;12.95;6.45;;;26.60;64.00;;;;;;6096814;23;20002;-67
2022/08/26 07:28:38;;;;;;;14.55;6.18;;;26.60;63.80;;;;;;6097106;23;20017;-66
2022/08/26 07:31:05;;;;;;;11.68;6.82;;;26.70;63.70;;;;;;6096901;23;20085;-66
2022/08/26 07:33:30;;;;;;;11.07;6.53;;;26.70;63.50;;;;;;6096980;23;20016;-67
2022/08/26 07:35:56;;;;;;;16.10;6.57;;;26.80;62.90;;;;;;6096709;23;20089;-67
2022/08/26 07:38:22;;;;;;;11.73;6.28;;;26.90;62.70;;;;;;6096772;23;20002;-67
2022/08/26 07:40:47;;;;;;;18.50;6.78;;;26.90;62.70;;;;;;6096765;23;20109;-67
2022/08/26 07:43:14;;;;;;;14.13;6.82;;;27.00;62.50;;;;;;6096772;23;20010;-67
2022/08/26 07:45:40;;;;;;;12.10;6.00;;;27.10;62.20;;;;;;6097023;23;20015;-67
2022/08/26 07:48:05;;;;;;;15.55;6.32;;;27.10;61.80;;;;;;6097576;23;20342;-67
2022/08/26 07:50:33;;;;;;;15.90;6.70;;;27.10;61.70;;;;;;6098419;23;20013;-67
2022/08/26 07:53:00;;;;;;;11.10;6.57;;;27.20;61.40;;;;;;6098659;23;20002;-67
2022/08/26 07:55:27;;;;;;;16.05;6.60;;;27.30;61.10;;;;;;6098485;23;20098;-67
2022/08/26 07:57:52;;;;;;;12.20;6.65;;;27.30;60.70;;;;;;6098292;23;20046;-67
2022/08/26 08:00:19;;;;;;;14.07;6.25;;;27.40;60.60;;;;;;6098151;23;20022;-67
2022/08/26 08:02:45;;;;;;;10.35;5.93;;;27.40;60.10;;;;;;6098030;23;20007;-67
2022/08/26 08:05:13;;;;;;;11.90;6.47;;;27.50;59.80;;;;;;6098271;23;20009;-67
2022/08/26 08:07:39;;;;;;;13.80;6.68;;;27.60;59.00;;;;;;6098123;23;20007;-67
2022/08/26 08:10:06;;;;;;;16.40;6.32;;;27.60;58.90;;;;;;6098347;23;20014;-68
2022/08/26 08:12:32;;;;;;;11.23;6.43;;;27.70;59.00;;;;;;6098444;23;20003;-67
2022/08/26 08:14:58;;;;;;;14.07;6.47;;;27.70;58.50;;;;;;6098126;23;20014;-67
2022/08/26 08:17:24;;;;;;;12.60;6.50;;;27.80;57.90;;;;;;6098096;23;20009;-67
2022/08/26 08:19:49;;;;;;;12.43;7.00;;;27.90;57.80;;;;;;6097726;23;20093;-67
2022/08/26 08:22:16;;;;;;;16.60;6.68;;;28.00;58.00;;;;;;6098445;23;20067;-67
2022/08/26 08:24:42;;;;;;;9.80;7.03;;;28.00;57.70;;;;;;6098258;23;19998;-67
2022/08/26 08:27:09;;;;;;;12.52;7.50;;;28.00;57.70;;;;;;6098721;23;20089;-67
2022/08/26 08:29:36;;;;;;;11.38;6.95;;;28.10;57.70;;;;;;6097996;23;20002;-67
2022/08/26 08:32:03;;;;;;;14.52;6.80;;;28.20;57.50;;;;;;6098147;23;20078;-67
2022/08/26 08:34:30;;;;;;;12.77;7.00;;;28.30;57.50;;;;;;6098289;23;20006;-67
2022/08/26 08:36:56;;;;;;;12.52;6.97;;;28.30;57.10;;;;;;6098127;23;20009;-67
2022/08/26 08:39:22;;;;;;;13.13;7.43;;;28.40;56.70;;;;;;6098044;23;20029;-67
2022/08/26 08:41:56;;;;;;;19.08;6.95;;;28.50;56.40;;;;;;6098000;23;20452;-67
2022/08/26 08:44:24;;;;;;;15.55;7.22;;;28.60;55.70;;;;;;6098250;23;20006;-67
2022/08/26 08:46:53;;;;;;;12.43;7.18;;;28.70;55.80;;;;;;6097891;23;20041;-67
2022/08/26 08:49:19;;;;;;;14.57;8.00;;;28.70;55.90;;;;;;6097948;23;20050;-67
2022/08/26 08:51:55;;;;;;;15.18;7.88;;;28.80;55.90;;;;;;6097873;23;20014;-68
2022/08/26 08:54:21;;;;;;;13.77;7.63;;;28.80;55.60;;;;;;6097759;23;20057;-67
2022/08/26 08:57:11;;;;;;;12.60;7.35;;;28.80;54.90;;;;;;6097778;23;20010;-68
2022/08/26 08:59:50;;;;;;;11.68;8.00;;;28.80;54.80;;;;;;6097805;23;20472;-67
2022/08/26 09:02:41;;;;;;;13.48;7.53;;;28.70;54.70;;;;;;6097993;23;20345;-67
2022/08/26 09:05:23;;;;;;;13.05;7.57;;;28.70;55.00;;;;;;6097737;23;20006;-66
2022/08/26 09:07:57;;;;;;;10.45;7.15;;;28.70;55.20;;;;;;6097717;23;20006;-67
2022/08/26 09:10:37;;;;;;;15.05;7.82;;;28.70;55.40;;;;;;6097502;23;20449;-67
2022/08/26 09:13:08;;;;;;;14.52;8.05;;;28.80;55.40;;;;;;6097687;23;20006;-67
2022/08/26 09:15:45;;;;;;;16.90;8.50;;;28.90;55.00;;;;;;6097752;23;20085;-67
2022/08/26 09:18:23;;;;;;;8.73;7.60;;;28.90;54.30;;;;;;6097415;23;20017;-67
2022/08/26 09:20:59;;;;;;;15.68;8.15;;;29.00;54.20;;;;;;6097397;23;20010;-67
2022/08/26 09:23:25;;;;;;;13.65;8.00;;;29.10;54.00;;;;;;6097970;23;20006;-68
2022/08/26 09:26:01;;;;;;;17.08;8.23;;;29.20;54.10;;;;;;6097897;23;20010;-67
2022/08/26 09:28:30;;;;;;;13.77;8.80;;;29.20;53.70;;;;;;6097631;23;20342;-67
2022/08/26 09:31:12;;;;;;;12.88;9.30;;;29.20;53.70;;;;;;6097250;23;19999;-67
2022/08/26 09:33:39;;;;;;;12.88;9.15;;;29.30;53.20;;;;;;6097607;23;20010;-67
2022/08/26 09:36:22;;;;;;;12.85;9.25;;;29.40;53.00;;;;;;6097432;23;20418;-67
2022/08/26 09:38:52;;;;;;;11.65;8.35;;;29.50;52.30;;;;;;6097486;23;20065;-67
2022/08/26 09:41:30;;;;;;;14.47;8.87;;;29.60;52.30;;;;;;6097411;23;20017;-67
2022/08/26 09:44:19;;;;;;;11.50;8.52;;;29.80;52.20;;;;;;6097336;23;20658;-68
2022/08/26 09:47:01;;;;;;;14.48;10.10;;;29.90;51.80;;;;;;6085979;23;20006;-67
2022/08/26 09:49:32;;;;;;;17.77;9.95;;;30.00;51.20;;;;;;6097377;23;20042;-67
2022/08/26 09:52:10;;;;;;;14.98;9.23;;;30.10;50.60;;;;;;6097414;23;20010;-67
2022/08/26 09:54:37;;;;;;;14.80;9.10;;;30.20;50.70;;;;;;6097102;23;20446;-67
2022/08/26 09:57:34;;;;;;;11.38;8.27;;;30.30;50.80;;;;;;6096941;23;20002;-67
2022/08/26 10:00:00;;;;;;;11.77;9.43;;;30.30;51.10;;;;;;6095657;23;20037;-67
2022/08/26 10:02:38;;;;;;;13.73;8.90;;;30.40;50.10;;;;;;6097054;23;20002;-67
2022/08/26 10:05:15;;;;;;;15.63;9.52;;;30.50;50.10;;;;;;6097374;23;20014;-67
2022/08/26 10:07:47;;;;;;;14.80;9.27;;;30.50;50.10;;;;;;6096917;23;20036;-68
2022/08/26 10:10:35;;;;;;;11.45;8.73;;;30.50;49.50;;;;;;6096770;23;20006;-67
2022/08/26 10:13:11;;;;;;;13.75;8.73;;;30.60;49.20;;;;;;6097031;23;20002;-67
2022/08/26 10:16:14;;;;;;;15.75;8.82;;;30.70;49.30;;;;;;6097028;23;20321;-67
2022/08/26 10:18:49;;;;;;;13.40;8.85;;;30.80;49.00;;;;;;6097281;23;20012;-67
2022/08/26 10:21:43;;;;;;;17.70;8.73;;;30.90;48.70;;;;;;6096744;23;20042;-68
2022/08/26 10:24:13;;;;;;;10.60;8.20;;;30.90;48.60;;;;;;6085303;23;20065;-67
2022/08/26 10:26:59;;;;;;;19.98;9.20;;;31.00;48.10;;;;;;6096929;23;20010;-67
2022/08/26 10:29:34;;;;;;;13.90;8.35;;;31.10;48.20;;;;;;6097404;23;20006;-67
2022/08/26 10:32:09;;;;;;;12.05;8.68;;;31.30;48.00;;;;;;6096860;23;20013;-67
2022/08/26 10:34:35;;;;;;;12.95;7.95;;;31.30;47.20;;;;;;6096788;23;19999;-68
2022/08/26 10:37:17;;;;;;;12.82;7.32;;;31.30;46.40;;;;;;6096699;23;20017;-67
2022/08/26 10:40:24;;;;;;;12.40;7.65;;;31.40;45.60;;;;;;6096611;23;20441;-67
2022/08/26 10:43:03;;;;;;;10.57;7.85;;;31.40;46.30;;;;;;6096864;23;20007;-67
2022/08/26 10:45:34;;;;;;;10.07;7.43;;;31.50;46.90;;;;;;6096834;23;20002;-67
2022/08/26 10:48:20;;;;;;;9.60;6.90;;;31.50;46.80;;;;;;6096878;23;20002;-67
2022/08/26 10:50:46;;;;;;;10.80;7.20;;;31.60;46.40;;;;;;6096735;23;20010;-67
2022/08/26 10:53:26;;;;;;;11.82;7.25;;;31.70;46.80;;;;;;6096686;23;19999;-67
2022/08/26 10:56:09;;;;;;;9.25;7.30;;;31.70;45.70;;;;;;6096629;23;20008;-67
2022/08/26 10:58:54;;;;;;;28.25;8.27;;;31.80;46.30;;;;;;6096659;23;20024;-67
2022/08/26 11:01:44;;;;;;;9.43;6.95;;;31.90;45.60;;;;;;6096512;23;20394;-68
2022/08/26 11:04:24;;;;;;;15.88;7.15;;;31.90;45.70;;;;;;6096631;23;19998;-67
2022/08/26 11:07:30;;;;;;;13.70;7.38;;;32.00;44.80;;;;;;6096994;23;20370;-67
2022/08/26 11:10:16;;;;;;;8.85;6.50;;;32.10;45.00;;;;;;6093427;23;20010;-67
2022/08/26 11:12:41;;;;;;;11.40;6.30;;;32.20;44.80;;;;;;6052320;23;20045;-67
2022/08/26 11:15:08;;;;;;;13.98;6.18;;;32.20;44.70;;;;;;6096746;23;20325;-67
2022/08/26 11:17:43;;;;;;;12.23;6.93;;;32.40;44.70;;;;;;6096933;23;19998;-67
2022/08/26 11:20:21;;;;;;;9.73;6.40;;;32.40;44.50;;;;;;6097017;23;20018;-67
2022/08/26 11:22:47;;;;;;;9.40;5.63;;;32.40;44.30;;;;;;6097596;23;19998;-67
2022/08/26 11:25:14;;;;;;;12.05;6.60;;;32.50;44.90;;;;;;6098735;23;20085;-67
2022/08/26 11:27:40;;;;;;;13.00;6.38;;;32.60;44.70;;;;;;6098768;23;20563;-67
2022/08/26 11:30:12;;;;;;;9.45;5.47;;;32.70;43.90;;;;;;6098955;23;20019;-67
2022/08/26 11:32:43;;;;;;;11.95;5.95;;;32.70;43.10;;;;;;6098659;23;20003;-67
2022/08/26 11:35:34;;;;;;;13.18;5.75;;;32.80;42.50;;;;;;6098607;23;20038;-67
2022/08/26 11:38:13;;;;;;;13.23;6.13;;;32.80;43.00;;;;;;6098460;23;20002;-67
2022/08/26 11:40:40;;;;;;;10.32;5.63;;;32.90;43.50;;;;;;6098492;23;20017;-67
2022/08/26 11:43:13;;;;;;;9.75;6.15;;;32.90;43.00;;;;;;6098420;23;20002;-67
2022/08/26 11:45:45;;;;;;;11.07;6.20;;;33.00;42.30;;;;;;6098128;23;20002;-67
2022/08/26 11:48:17;;;;;;;9.25;5.38;;;33.00;42.40;;;;;;6098830;23;20414;-67
2022/08/26 11:50:59;;;;;;;9.93;5.63;;;33.00;42.20;;;;;;6098449;23;20030;-67
2022/08/26 11:53:26;;;;;;;11.00;5.82;;;33.10;41.60;;;;;;6098555;23;20014;-67
2022/08/26 11:55:54;;;;;;;8.50;5.00;;;33.20;41.80;;;;;;6098076;23;20002;-67
2022/08/26 11:58:22;;;;;;;10.27;5.38;;;33.20;41.80;;;;;;6097977;23;20025;-67
2022/08/26 12:00:56;;;;;;;8.45;5.00;;;33.30;41.60;;;;;;6098037;23;20058;-67
2022/08/26 12:03:36;;;;;;;7.53;4.88;;;33.40;40.60;;;;;;6098436;23;20002;-67
2022/08/26 12:06:08;;;;;;;9.63;5.40;;;33.40;40.70;;;;;;6098676;23;20311;-68
2022/08/26 12:08:41;;;;;;;8.38;4.97;;;33.50;41.00;;;;;;6098299;23;20429;-67
2022/08/26 12:11:29;;;;;;;11.00;5.55;;;33.60;40.80;;;;;;6098114;23;20442;-68
2022/08/26 12:14:16;;;;;;;8.15;5.43;;;33.70;40.80;;;;;;6098234;23;20038;-67
2022/08/26 12:16:42;;;;;;;10.00;4.90;;;33.70;41.10;;;;;;6098161;23;20006;-68
2022/08/26 12:19:25;;;;;;;11.43;5.28;;;33.80;41.60;;;;;;6098252;23;20037;-67
2022/08/26 12:22:35;;;;;;;8.23;5.18;;;33.80;41.80;;;;;;6098345;23;20334;-67
2022/08/26 12:25:07;;;;;;;6.50;4.43;;;33.90;43.00;;;;;;6081975;23;20006;-67
2022/08/26 12:27:43;;;;;;;11.55;5.30;;;33.90;41.50;;;;;;6097851;23;20330;-67
2022/08/26 12:30:15;;;;;;;11.10;4.95;;;34.00;41.20;;;;;;6098284;23;20010;-68
2022/08/26 12:32:44;;;;;;;10.07;5.07;;;33.90;41.30;;;;;;6097867;23;20006;-67
2022/08/26 12:35:13;;;;;;;12.80;4.90;;;34.00;41.90;;;;;;6097728;23;20007;-67
2022/08/26 12:37:43;;;;;;;7.53;4.88;;;34.00;40.70;;;;;;6097863;23;20032;-67
2022/08/26 12:40:26;;;;;;;15.38;5.45;;;34.00;41.40;;;;;;6097696;23;20433;-67
2022/08/26 12:42:52;;;;;;;12.90;4.95;;;34.10;41.60;;;;;;6097949;23;20003;-67
2022/08/26 12:46:03;;;;;;;12.15;4.95;;;34.10;41.40;;;;;;6097638;23;20053;-67
2022/08/26 12:48:32;;;;;;;18.53;5.50;;;34.20;41.00;;;;;;6080165;23;20486;-68
2022/08/26 12:50:59;;;;;;;6.20;4.43;;;34.30;40.70;;;;;;6097768;23;20007;-68
2022/08/26 12:53:30;;;;;;;8.18;4.15;;;34.40;40.10;;;;;;6097861;23;20002;-68
2022/08/26 12:56:02;;;;;;;;;;;34.40;40.10;;;;;;6098183;23;20069;-68
2022/08/26 12:58:35;;;;;;;9.38;4.40;;;34.40;38.20;;;;;;6097222;23;19913;-68
2022/08/26 13:01:05;;;;;;;8.95;5.07;;;34.40;39.50;;;;;;6097510;23;20022;-68
2022/08/26 13:03:33;;;;;;;9.27;4.35;;;34.40;40.20;;;;;;6097849;23;20061;-67